Time;durP1;ratioP1;P1;durP2;ratioP2;P2;SDS_P1;SDS_P2;PMS_P1;PMS_P2;Temp;Humidity;BMP_temperature;BMP_pressure;BME280_temperature;BME280_humidity;BME280_pressure;Samples;Min_cycle;Max_cycle;Signal;HPM_P1;HPM_P2
2022/06/10 06:42:04;;;;;;;10.05;1.98;;;;;;;15.52;82.58;102143.59;3280271;23;20059;-80
2022/06/10 06:44:30;;;;;;;9.15;1.80;;;;;;;15.54;82.75;102141.72;4932536;29;20322;-81
2022/06/10 06:47:03;;;;;;;8.43;2.22;;;;;;;15.55;82.86;102143.44;4917690;29;20039;-81
2022/06/10 06:49:32;;;;;;;6.18;2.25;;;;;;;15.56;83.60;102150.44;4933152;29;20087;-80
2022/06/10 06:52:00;;;;;;;5.28;2.05;;;;;;;15.59;83.17;102142.41;4923967;29;20373;-80
2022/06/10 06:54:25;;;;;;;7.80;1.90;;;;;;;15.62;83.32;102152.81;4939857;29;20250;-80
2022/06/10 06:56:51;;;;;;;7.22;2.30;;;;;;;15.64;83.00;102145.69;4922539;29;20059;-80
2022/06/10 07:02:12;;;;;;;3.20;1.48;;;;;;;15.68;83.00;102154.34;5011538;23;20044;-79
2022/06/10 07:04:38;;;;;;;13.63;2.40;;;;;;;15.69;82.35;102151.66;4927704;29;20215;-79
2022/06/10 07:07:04;;;;;;;6.55;2.00;;;;;;;15.72;82.71;102153.31;4928340;29;20106;-82
2022/06/10 07:09:29;;;;;;;5.75;1.88;;;;;;;15.73;82.84;102150.63;4926101;29;20027;-82
2022/06/10 07:11:56;;;;;;;9.93;2.58;;;;;;;15.76;82.77;102156.72;4922329;29;20031;-82
2022/06/10 07:14:30;;;;;;;7.93;2.20;;;;;;;15.79;83.04;102159.22;4924701;29;20047;-81
2022/06/10 07:17:03;;;;;;;10.00;2.20;;;;;;;15.82;82.31;102152.03;4901897;29;20107;-81
2022/06/10 07:19:28;;;;;;;7.55;2.00;;;;;;;15.85;82.52;102159.00;4928655;29;20361;-82
2022/06/10 07:21:53;;;;;;;5.78;1.65;;;;;;;15.85;82.29;102157.19;4932273;29;20130;-82
2022/06/10 07:24:19;;;;;;;12.60;2.70;;;;;;;15.88;82.14;102157.06;4938607;29;20082;-82
2022/06/10 07:26:47;;;;;;;6.88;2.13;;;;;;;15.89;82.31;102169.34;4930059;29;20044;-82
2022/06/10 07:29:12;;;;;;;7.53;2.20;;;;;;;15.93;82.09;102164.78;4926088;29;20099;-82
2022/06/10 07:31:40;;;;;;;6.85;2.53;;;;;;;15.95;82.36;102164.72;4929600;29;20051;-82
2022/06/10 07:34:06;;;;;;;6.65;1.42;;;;;;;15.96;81.93;102159.38;4919488;29;20028;-82
2022/06/10 07:36:31;;;;;;;4.70;1.80;;;;;;;15.98;81.82;102156.69;4936380;29;20468;-82
2022/06/10 07:38:57;;;;;;;10.48;2.30;;;;;;;16.00;82.48;102166.25;4935463;29;20054;-82
2022/06/10 07:44:06;;;;;;;7.40;2.13;;;;;;;16.03;81.89;102165.28;4924136;29;20043;-82
2022/06/10 07:46:31;;;;;;;7.05;2.10;;;;;;;16.04;81.88;102167.84;4925318;29;20052;-82
2022/06/10 07:48:57;;;;;;;11.20;2.13;;;;;;;16.06;81.85;102159.84;4938848;29;20349;-82
2022/06/10 07:51:23;;;;;;;5.97;2.30;;;;;;;16.07;81.81;102161.56;4920031;29;20107;-82
2022/06/10 07:53:49;;;;;;;6.20;2.05;;;;;;;16.10;82.06;102156.16;4935325;29;20479;-82
2022/06/10 07:56:16;;;;;;;5.70;1.95;;;;;;;16.11;82.17;102158.72;4928371;29;20039;-82
2022/06/10 07:58:44;;;;;;;3.60;1.58;;;;;;;16.15;82.14;102155.94;4941551;29;20195;-79
2022/06/10 08:01:10;;;;;;;3.90;2.10;;;;;;;16.17;82.28;102162.91;4907583;29;20090;-79
2022/06/10 08:03:36;;;;;;;6.15;1.50;;;;;;;16.19;81.73;102163.69;4921488;29;20298;-79
2022/06/10 08:06:01;;;;;;;7.05;1.80;;;;;;;16.21;81.78;102161.84;4920330;29;20367;-80
2022/06/10 08:08:27;;;;;;;12.10;2.70;;;;;;;16.23;81.97;102164.44;4927458;29;20040;-79
2022/06/10 08:10:53;;;;;;;6.45;2.30;;;;;;;16.24;81.91;102168.75;4917910;29;20398;-79
2022/06/10 08:13:19;;;;;;;10.95;2.10;;;;;;;16.26;81.75;102167.78;4927200;29;20036;-79
2022/06/10 08:15:45;;;;;;;9.60;2.83;;;;;;;16.29;81.97;102166.78;4913393;29;20059;-80
2022/06/10 08:18:15;;;;;;;6.60;1.92;;;;;;;16.34;81.98;102163.97;4912699;29;20358;-80
2022/06/10 08:23:28;;;;;;;6.28;2.03;;;;;;;16.43;82.27;102172.34;4905650;29;20395;-79
2022/06/10 08:25:59;;;;;;;10.38;2.33;;;;;;;16.44;81.60;102166.09;4912853;29;20372;-79
2022/06/10 08:28:25;;;;;;;12.52;2.83;;;;;;;16.48;81.72;102172.13;4911536;29;20035;-79
2022/06/10 08:30:51;;;;;;;5.72;2.60;;;;;;;16.51;81.43;102161.41;4908751;29;20123;-80
2022/06/10 08:33:17;;;;;;;4.57;1.85;;;;;;;16.55;81.76;102164.78;4904213;29;20339;-79
2022/06/10 08:35:42;;;;;;;16.83;3.20;;;;;;;16.60;82.05;102173.38;4913124;29;20116;-79
2022/06/10 08:38:11;;;;;;;11.93;3.30;;;;;;;16.61;81.46;102162.72;4898092;29;20063;-79
2022/06/10 08:40:39;;;;;;;7.72;3.33;;;;;;;16.64;81.07;102162.56;4926562;29;20050;-79
2022/06/10 08:43:57;;;;;;;7.57;3.65;;;;;;;16.66;81.24;102152.81;4917310;29;20031;-79
2022/06/10 08:46:34;;;;;;;6.55;3.25;;;;;;;16.69;80.99;102165.00;4891540;29;20219;-79
2022/06/10 08:49:24;;;;;;;4.45;2.83;;;;;;;16.72;81.07;102162.25;4930889;29;20036;-79
2022/06/10 08:52:02;;;;;;;9.02;3.10;;;;;;;16.77;81.07;102162.00;4918913;29;20026;-79
2022/06/10 08:54:35;;;;;;;12.32;3.20;;;;;;;16.85;81.88;102163.41;4914015;29;21977;-79
2022/06/10 08:57:06;;;;;;;6.32;2.15;;;;;;;16.88;81.07;102159.75;4920468;29;20231;-79
2022/06/10 08:59:43;;;;;;;11.55;2.92;;;;;;;16.95;79.97;102160.34;4914228;29;20035;-79
2022/06/10 09:02:08;;;;;;;13.68;2.30;;;;;;;16.97;80.11;102158.47;4903610;29;20067;-79
2022/06/10 09:04:59;;;;;;;7.32;2.40;;;;;;;17.03;80.30;102161.72;4911952;29;20036;-79
2022/06/10 09:07:42;;;;;;;9.63;2.45;;;;;;;17.06;78.94;102165.97;4906535;29;20036;-80
2022/06/10 09:10:24;;;;;;;6.43;2.28;;;;;;;17.08;79.35;102166.75;4911431;29;20037;-79
2022/06/10 09:13:09;;;;;;;6.55;2.08;;;;;;;17.07;79.44;102173.00;4907855;29;20044;-79
2022/06/10 09:15:42;;;;;;;5.43;2.03;;;;;;;17.12;79.48;102172.78;4925629;29;20032;-79
2022/06/10 09:18:14;;;;;;;7.15;2.00;;;;;;;17.14;79.76;102169.13;4911002;29;20291;-79
2022/06/10 09:20:56;;;;;;;6.82;2.15;;;;;;;17.19;79.77;102175.09;4911610;29;20032;-80
2022/06/10 09:23:41;;;;;;;7.32;2.30;;;;;;;17.23;78.47;102179.28;4909409;29;20439;-79
2022/06/10 09:26:12;;;;;;;6.63;2.30;;;;;;;17.24;78.11;102178.34;4910014;29;20099;-79
2022/06/10 09:28:39;;;;;;;6.57;2.30;;;;;;;17.29;78.84;102174.66;4905398;29;20043;-80
2022/06/10 09:31:15;;;;;;;3.78;1.65;;;;;;;17.31;78.81;102178.91;4919529;29;20044;-79
2022/06/10 09:34:02;;;;;;;4.43;2.10;;;;;;;17.36;78.25;102176.06;4909832;29;20090;-80
2022/06/10 09:36:44;;;;;;;3.80;1.88;;;;;;;17.37;78.77;102170.69;4914311;29;20032;-79
2022/06/10 09:42:19;;;;;;;10.85;1.98;;;;;;;17.45;78.65;102176.47;4907956;29;20042;-79
2022/06/10 09:44:56;;;;;;;6.75;2.03;;;;;;;17.47;78.34;102176.41;4916111;29;20338;-79
2022/06/10 09:47:43;;;;;;;6.93;1.80;;;;;;;17.49;78.96;102173.69;4907433;29;20032;-79
2022/06/10 09:50:43;;;;;;;4.70;1.90;;;;;;;17.50;78.29;102168.31;4929170;29;20331;-79
2022/06/10 09:53:45;;;;;;;10.70;2.15;;;;;;;17.55;77.85;102166.28;4919720;29;20048;-79
2022/06/10 09:56:33;;;;;;;7.95;1.90;;;;;;;17.58;78.07;102167.94;4911961;29;20039;-79
2022/06/10 09:59:35;;;;;;;6.53;2.28;;;;;;;17.59;77.70;102177.56;4915967;29;20034;-79
2022/06/10 10:02:10;;;;;;;3.03;1.48;;;;;;;17.62;79.01;102182.72;4910127;29;20150;-79
2022/06/10 10:05:05;;;;;;;6.93;1.73;;;;;;;17.64;78.51;102184.41;4906624;29;20028;-79
2022/06/10 10:07:40;;;;;;;3.88;1.50;;;;;;;17.65;78.55;102187.88;4899204;29;20052;-79
2022/06/10 10:10:25;;;;;;;8.57;1.75;;;;;;;17.65;77.04;102190.53;4914735;29;20040;-79
2022/06/10 10:12:53;;;;;;;4.43;1.60;;;;;;;17.65;77.22;102207.28;4903275;29;20028;-79
2022/06/10 10:15:31;;;;;;;5.43;1.65;;;;;;;17.65;76.97;102188.75;4911984;29;20223;-80
2022/06/10 10:18:33;;;;;;;2.75;1.27;;;;;;;17.68;76.59;102192.16;4910591;29;20192;-79
2022/06/10 10:21:05;;;;;;;6.45;1.65;;;;;;;17.71;75.66;102205.28;4909641;29;20351;-79
2022/06/10 10:23:41;;;;;;;5.07;1.55;;;;;;;17.76;77.15;102193.50;4907006;29;20221;-79
2022/06/10 10:26:37;;;;;;;10.98;1.52;;;;;;;17.79;73.69;102187.19;4907197;29;20084;-79
2022/06/10 10:29:13;;;;;;;8.32;1.35;;;;;;;17.83;74.69;102197.56;4907086;29;20312;-79
2022/06/10 10:31:45;;;;;;;3.00;1.55;;;;;;;17.84;74.46;102193.13;4911929;29;20284;-79
2022/06/10 10:34:19;;;;;;;4.85;1.60;;;;;;;17.82;74.34;102192.34;4914947;29;20095;-79
2022/06/10 10:36:49;;;;;;;13.77;1.75;;;;;;;17.80;75.46;102187.13;4930448;29;20039;-79
2022/06/10 10:39:32;;;;;;;4.18;1.30;;;;;;;17.80;74.70;102192.41;4908205;29;20103;-79
2022/06/10 10:42:02;;;;;;;5.78;1.50;;;;;;;17.81;75.44;102190.66;4912912;29;20251;-79
2022/06/10 10:44:27;;;;;;;2.22;1.30;;;;;;;17.80;75.89;102194.22;4910713;29;20160;-79
2022/06/10 10:47:15;;;;;;;6.53;1.90;;;;;;;17.80;75.28;102192.41;4908894;29;20055;-80
2022/06/10 10:49:56;;;;;;;4.82;1.73;;;;;;;17.83;74.94;102191.44;4915211;29;20059;-80
2022/06/10 10:52:39;;;;;;;8.15;1.90;;;;;;;17.84;75.49;102187.81;4911744;29;20429;-80
2022/06/10 10:55:13;;;;;;;4.40;1.60;;;;;;;17.90;76.33;102194.63;4906999;29;20028;-80
2022/06/10 10:58:04;;;;;;;3.85;1.75;;;;;;;17.94;75.15;102193.56;4907868;29;20156;-79
2022/06/10 11:00:39;;;;;;;4.43;1.58;;;;;;;17.98;74.16;102184.53;4905037;29;20295;-80
2022/06/10 11:03:05;;;;;;;7.18;1.75;;;;;;;18.02;73.27;102186.06;4906912;29;20338;-79
2022/06/10 11:05:46;;;;;;;3.88;1.73;;;;;;;18.05;73.30;102183.28;4889366;29;20038;-79
2022/06/10 11:08:14;;;;;;;3.97;1.88;;;;;;;18.08;74.00;102199.03;4915638;29;20334;-79
2022/06/10 11:10:50;;;;;;;9.30;1.98;;;;;;;18.09;74.07;102191.94;4900329;29;20039;-79
2022/06/10 11:13:24;;;;;;;11.65;1.70;;;;;;;18.08;73.38;102187.56;4891381;29;20100;-80
2022/06/10 11:15:49;;;;;;;4.47;1.52;;;;;;;18.10;74.50;102190.97;4910506;29;20326;-79
2022/06/10 11:18:15;;;;;;;7.22;1.80;;;;;;;18.12;73.58;102182.03;4895833;29;20044;-79
2022/06/10 11:20:40;;;;;;;5.22;2.08;;;;;;;18.16;75.12;102190.69;4894656;29;20115;-79
2022/06/10 11:23:26;;;;;;;7.68;2.33;;;;;;;18.22;73.25;102201.81;4895254;29;20339;-79
2022/06/10 11:26:22;;;;;;;4.80;1.77;;;;;;;18.31;72.14;102184.56;4891009;29;20043;-80
2022/06/10 11:28:57;;;;;;;8.70;2.28;;;;;;;18.38;72.51;102190.44;4884379;29;20048;-79
2022/06/10 11:31:28;;;;;;;10.93;2.40;;;;;;;18.44;72.40;102176.84;4914307;29;20044;-79
2022/06/10 11:33:57;;;;;;;8.18;2.00;;;;;;;18.48;73.46;102188.13;4912519;29;20024;-79
2022/06/10 11:36:32;;;;;;;3.63;1.88;;;;;;;18.52;74.28;102195.88;4907545;29;20350;-79
2022/06/10 11:39:08;;;;;;;10.27;2.22;;;;;;;18.51;72.11;102188.00;4896129;29;20043;-79
2022/06/10 11:41:33;;;;;;;5.32;1.77;;;;;;;18.49;70.85;102190.72;4906724;29;20048;-80
2022/06/10 11:44:22;;;;;;;5.88;1.90;;;;;;;18.49;71.60;102184.56;4914730;29;20056;-79
2022/06/10 11:47:11;;;;;;;4.57;1.73;;;;;;;18.47;71.25;102192.59;4913765;29;20043;-79
2022/06/10 11:49:46;;;;;;;4.10;1.70;;;;;;;18.44;70.93;102184.78;4890214;29;20040;-79
2022/06/10 11:52:27;;;;;;;1.90;1.23;;;;;;;18.41;73.02;102190.28;4904652;29;20200;-79
2022/06/10 11:55:20;;;;;;;8.75;2.15;;;;;;;18.40;71.69;102185.91;4906832;29;20035;-79
2022/06/10 12:00:55;;;;;;;14.10;2.13;;;;;;;18.38;72.61;102188.63;4920308;29;20038;-79
2022/06/10 12:03:32;;;;;;;5.57;1.65;;;;;;;18.36;72.76;102179.91;4918414;29;20342;-79
2022/06/10 12:06:36;;;;;;;4.87;1.70;;;;;;;18.36;74.50;102184.34;4916723;29;20059;-79
2022/06/10 12:09:17;;;;;;;4.35;1.65;;;;;;;18.37;75.06;102191.34;4895788;29;20335;-80
2022/06/10 12:11:44;;;;;;;7.03;1.70;;;;;;;18.36;73.88;102187.00;4909921;29;20271;-79
2022/06/10 12:14:20;;;;;;;4.10;1.77;;;;;;;18.35;75.24;102183.47;4908412;29;20039;-79
2022/06/10 12:16:52;;;;;;;3.95;1.80;;;;;;;18.34;74.82;102183.56;4906102;29;20033;-79
2022/06/10 12:19:27;;;;;;;5.80;1.88;;;;;;;18.33;73.34;102184.50;4912756;29;21239;-79
2022/06/10 12:21:52;;;;;;;7.03;2.13;;;;;;;18.31;73.62;102178.44;4913091;29;20239;-79
2022/06/10 12:24:20;;;;;;;4.47;1.77;;;;;;;18.31;74.29;102173.97;4912853;29;20036;-79
2022/06/10 12:26:47;;;;;;;3.13;1.65;;;;;;;18.31;74.13;102179.28;4909050;29;20027;-79
2022/06/10 12:29:26;;;;;;;2.42;1.50;;;;;;;18.31;73.93;102173.13;4910845;29;20063;-79
2022/06/10 12:31:58;;;;;;;5.38;2.17;;;;;;;18.32;74.14;102188.06;4894623;29;20035;-79
2022/06/10 12:34:45;;;;;;;3.88;1.80;;;;;;;18.33;74.76;102181.84;4923494;29;20401;-79
2022/06/10 12:37:23;;;;;;;6.95;2.33;;;;;;;18.34;74.53;102179.13;4922553;29;20238;-79
2022/06/10 12:39:55;;;;;;;3.75;2.05;;;;;;;18.34;74.54;102180.94;4922543;29;20036;-79
2022/06/10 12:42:47;;;;;;;9.55;2.30;;;;;;;18.35;74.75;102178.16;4909317;29;20063;-79
2022/06/10 12:45:21;;;;;;;8.52;2.30;;;;;;;18.38;75.05;102187.78;4894702;29;20091;-80
2022/06/10 12:47:52;;;;;;;5.05;1.95;;;;;;;18.41;75.31;102175.22;4892270;29;20075;-79
2022/06/10 12:50:31;;;;;;;7.53;2.38;;;;;;;18.43;75.12;102180.44;4912743;29;20036;-79
2022/06/10 12:53:38;;;;;;;6.65;2.20;;;;;;;18.47;75.95;102175.84;4911371;29;20390;-79
2022/06/10 12:56:22;;;;;;;4.13;2.30;;;;;;;18.53;76.11;102181.66;4862848;29;20040;-79
2022/06/10 12:59:11;;;;;;;6.20;2.17;;;;;;;18.58;76.02;102178.75;4912319;29;20063;-79
2022/06/10 13:01:37;;;;;;;9.30;2.65;;;;;;;18.60;76.44;102176.88;4898760;29;20377;-79
2022/06/10 13:04:25;;;;;;;4.30;2.20;;;;;;;18.61;76.22;102183.91;4897644;29;20068;-79
2022/06/10 13:06:57;;;;;;;10.15;2.25;;;;;;;18.64;76.08;102185.53;4873818;29;20058;-80
2022/06/10 13:09:31;;;;;;;4.72;2.20;;;;;;;18.66;76.53;102189.81;4887160;29;20040;-80
2022/06/10 13:12:06;;;;;;;6.32;2.47;;;;;;;18.67;76.29;102183.56;4889062;29;20029;-79
2022/06/10 13:14:35;;;;;;;2.90;2.20;;;;;;;18.68;75.85;102189.72;4896578;29;20048;-79
2022/06/10 13:17:24;;;;;;;5.82;1.95;;;;;;;18.67;76.04;102188.03;4888051;29;20035;-79
2022/06/10 13:19:53;;;;;;;4.85;2.20;;;;;;;18.64;75.59;102201.47;4885281;29;20081;-81
2022/06/10 13:22:21;;;;;;;4.13;1.98;;;;;;;18.64;75.76;102190.84;4895204;29;20032;-79
2022/06/10 13:24:54;;;;;;;4.38;2.20;;;;;;;18.63;76.36;102184.69;4898413;29;20056;-79
2022/06/10 13:27:27;;;;;;;3.47;2.13;;;;;;;18.61;76.28;102184.78;4897370;29;20081;-79
2022/06/10 13:30:11;;;;;;;3.63;1.90;;;;;;;18.63;77.04;102186.47;4897476;29;20029;-79
2022/06/10 13:33:05;;;;;;;7.63;2.30;;;;;;;18.63;77.25;102175.84;4887968;29;20033;-79
2022/06/10 13:35:56;;;;;;;4.10;1.92;;;;;;;18.64;77.16;102174.94;4887252;29;20047;-79
2022/06/10 13:38:35;;;;;;;5.25;2.17;;;;;;;18.62;76.36;102196.22;4897238;29;20406;-79
2022/06/10 13:43:51;;;;;;;2.87;1.90;;;;;;;18.61;76.78;102187.41;4895879;29;20087;-79
2022/06/10 13:46:22;;;;;;;3.92;2.08;;;;;;;18.64;77.22;102194.34;4894859;29;20196;-80
2022/06/10 13:48:47;;;;;;;6.93;1.88;;;;;;;18.64;76.24;102197.00;4897378;29;20032;-79
2022/06/10 13:51:28;;;;;;;7.40;2.13;;;;;;;18.67;77.14;102193.34;4900406;29;20087;-79
2022/06/10 13:54:03;;;;;;;2.17;1.77;;;;;;;18.70;76.86;102187.84;4896398;29;20072;-79
2022/06/10 13:56:42;;;;;;;5.38;1.88;;;;;;;18.73;77.05;102185.03;4880617;29;20045;-80
2022/06/10 13:59:25;;;;;;;2.40;1.70;;;;;;;18.76;77.13;102187.53;4897463;29;20057;-79
2022/06/10 14:01:53;;;;;;;2.92;1.70;;;;;;;18.78;77.71;102186.50;4898813;29;20276;-80
2022/06/10 14:04:24;;;;;;;2.10;1.90;;;;;;;18.80;77.64;102187.28;4908935;29;20024;-80
2022/06/10 14:06:58;;;;;;;5.07;2.30;;;;;;;18.83;78.11;102181.00;4915341;29;20366;-80
2022/06/10 14:09:27;;;;;;;4.18;2.40;;;;;;;18.84;77.63;102179.19;4925393;29;20039;-79
2022/06/10 14:12:02;;;;;;;4.80;2.15;;;;;;;18.86;77.59;102183.47;4913453;29;20036;-79
2022/06/10 14:14:29;;;;;;;3.70;2.13;;;;;;;18.87;76.97;102173.72;4913988;29;20044;-80
2022/06/10 14:17:13;;;;;;;4.90;2.17;;;;;;;18.88;77.53;102175.41;4911051;29;20024;-80
2022/06/10 14:19:56;;;;;;;4.25;2.28;;;;;;;18.90;77.65;102178.84;4911643;29;20040;-80
2022/06/10 14:22:23;;;;;;;5.18;2.50;;;;;;;18.87;76.74;102171.91;4912967;29;20044;-79
2022/06/10 14:25:14;;;;;;;7.15;2.63;;;;;;;18.87;76.72;102169.25;4921052;29;20037;-80
2022/06/10 14:28:03;;;;;;;2.95;1.90;;;;;;;18.88;77.33;102162.16;4917671;29;20031;-80
2022/06/10 14:30:48;;;;;;;2.80;1.98;;;;;;;18.89;77.63;102171.84;4926449;29;20025;-79
2022/06/10 14:33:25;;;;;;;4.07;1.98;;;;;;;18.91;77.58;102169.94;4910995;29;20258;-79
2022/06/10 14:36:04;;;;;;;2.58;2.05;;;;;;;18.92;77.52;102166.38;4912250;29;20310;-79
2022/06/10 14:38:30;;;;;;;3.45;1.98;;;;;;;18.91;77.42;102162.84;4906816;29;20335;-80
2022/06/10 14:41:07;;;;;;;3.25;1.70;;;;;;;18.91;77.53;102168.16;4911474;29;20092;-79
2022/06/10 14:43:38;;;;;;;3.25;1.83;;;;;;;18.93;77.72;102170.72;4921426;29;20335;-79
2022/06/10 14:46:18;;;;;;;6.70;2.20;;;;;;;18.95;77.92;102168.84;4912549;29;20092;-80
2022/06/10 14:48:44;;;;;;;5.28;2.10;;;;;;;18.93;77.82;102162.75;4911742;29;20084;-80
2022/06/10 14:51:30;;;;;;;5.95;2.10;;;;;;;18.93;78.07;102160.94;4922695;29;20051;-80
2022/06/10 14:53:59;;;;;;;3.05;1.73;;;;;;;18.93;77.90;102168.06;4907985;29;20048;-79
2022/06/10 14:56:38;;;;;;;6.40;2.50;;;;;;;18.92;77.87;102158.41;4927316;29;20205;-79
2022/06/10 14:59:23;;;;;;;3.50;1.95;;;;;;;18.90;77.80;102163.78;4918984;29;20032;-80
2022/06/10 15:01:50;;;;;;;3.45;1.80;;;;;;;18.88;77.48;102164.81;4910958;29;20048;-80
2022/06/10 15:04:16;;;;;;;3.47;1.75;;;;;;;18.87;77.77;102161.31;4904178;29;20087;-79
2022/06/10 15:06:45;;;;;;;6.03;1.85;;;;;;;18.88;78.07;102159.50;4902220;29;20323;-79
2022/06/10 15:09:11;;;;;;;4.03;2.20;;;;;;;18.87;78.23;102163.09;4913379;29;20024;-80
2022/06/10 15:11:36;;;;;;;1.75;1.65;;;;;;;18.85;78.25;102159.69;4907728;29;20111;-79
2022/06/10 15:14:02;;;;;;;2.53;1.90;;;;;;;18.85;78.32;102154.38;4875224;29;20032;-79
2022/06/10 15:16:28;;;;;;;3.80;1.92;;;;;;;18.84;78.56;102160.59;4912658;29;20048;-79
2022/06/10 15:18:53;;;;;;;3.30;2.05;;;;;;;18.83;78.35;102162.41;4893091;29;20055;-79
2022/06/10 15:21:29;;;;;;;4.00;1.88;;;;;;;18.82;78.56;102155.38;4911513;29;20327;-79
2022/06/10 15:23:55;;;;;;;4.35;1.55;;;;;;;18.83;78.77;102157.09;4912900;29;20043;-79
2022/06/10 15:26:26;;;;;;;3.42;1.98;;;;;;;18.82;78.74;102149.22;4892083;29;20050;-79
2022/06/10 15:28:51;;;;;;;3.83;1.73;;;;;;;18.80;78.82;102147.47;4918126;29;20020;-80
2022/06/10 15:31:19;;;;;;;2.70;1.67;;;;;;;18.79;78.33;102150.19;4907752;29;20047;-79
2022/06/10 15:33:45;;;;;;;3.53;2.37;;;;;;;18.78;78.68;102143.19;4919340;29;20036;-80
2022/06/10 15:41:57;;;;;;;4.22;2.03;;;;;;;18.74;78.88;102134.53;4909140;29;20136;-80
2022/06/10 15:44:26;;;;;;;2.22;1.88;;;;;;;18.74;79.16;102146.97;4905965;29;20044;-80
2022/06/10 15:46:53;;;;;;;2.60;1.73;;;;;;;18.73;78.89;102140.78;4912429;29;20040;-79
2022/06/10 15:49:18;;;;;;;3.85;2.28;;;;;;;18.70;78.92;102140.97;4909545;29;20400;-80
2022/06/10 15:51:49;;;;;;;4.18;2.00;;;;;;;18.70;78.83;102142.75;4899035;29;20048;-79
2022/06/10 15:54:22;;;;;;;5.15;2.00;;;;;;;18.69;79.22;102141.03;4909830;29;20323;-80
2022/06/10 15:57:09;;;;;;;5.78;2.20;;;;;;;18.68;79.19;102142.84;4906443;29;20031;-80
2022/06/10 15:59:53;;;;;;;3.10;2.05;;;;;;;18.68;79.39;102141.97;4894804;29;20067;-79
2022/06/10 16:02:22;;;;;;;6.35;2.60;;;;;;;18.66;79.08;102135.91;4907916;29;20043;-79
2022/06/10 16:04:51;;;;;;;4.72;2.45;;;;;;;18.66;79.47;102144.69;4916092;29;20339;-80
2022/06/10 16:07:18;;;;;;;6.72;2.50;;;;;;;18.67;79.49;102145.59;4910470;29;20051;-79
2022/06/10 16:09:44;;;;;;;4.97;2.35;;;;;;;18.64;79.68;102146.59;4922673;29;20091;-79
2022/06/10 16:15:01;;;;;;;5.97;2.67;;;;;;;18.63;79.90;102144.00;4917813;29;20051;-79
2022/06/10 16:17:28;;;;;;;3.97;2.38;;;;;;;18.65;80.06;102144.81;4898664;29;20040;-79
2022/06/10 16:19:55;;;;;;;4.32;2.80;;;;;;;18.64;79.66;102146.59;4916340;29;20293;-79
2022/06/10 16:22:20;;;;;;;4.70;2.50;;;;;;;18.63;79.63;102144.00;4903098;29;20040;-79
2022/06/10 16:24:47;;;;;;;9.88;2.70;;;;;;;18.63;79.62;102144.00;4899030;29;20368;-80
2022/06/10 16:27:15;;;;;;;3.67;2.38;;;;;;;18.62;79.46;102148.47;4924336;29;20054;-79
2022/06/10 16:29:49;;;;;;;14.07;3.00;;;;;;;18.61;79.14;102138.81;4919712;29;20144;-80
2022/06/10 16:32:15;;;;;;;2.97;2.22;;;;;;;18.59;79.35;102144.19;4916675;29;20032;-80
2022/06/10 16:34:40;;;;;;;6.57;2.20;;;;;;;18.59;79.04;102136.25;4901202;29;20135;-80
2022/06/10 16:37:05;;;;;;;6.78;2.75;;;;;;;18.58;79.24;102137.16;4906880;29;20063;-80
2022/06/10 16:39:31;;;;;;;3.80;2.10;;;;;;;18.57;79.16;102137.25;4921099;29;20123;-80
2022/06/10 16:41:56;;;;;;;4.75;1.98;;;;;;;18.55;79.33;102134.66;4890112;29;21090;-79
2022/06/10 16:44:29;;;;;;;5.38;2.58;;;;;;;18.54;79.18;102129.47;4915683;29;20388;-80
2022/06/10 16:47:02;;;;;;;4.63;2.00;;;;;;;18.53;79.37;102128.59;4912914;29;20036;-79
2022/06/10 16:49:30;;;;;;;4.00;2.28;;;;;;;18.55;79.61;102128.50;4910036;29;20047;-80
2022/06/10 16:51:57;;;;;;;;;;;;;;;18.55;79.57;102128.50;4910947;29;20049;-80
2022/06/10 16:54:23;;;;;;;7.57;2.38;;;;;;;18.55;79.64;102123.22;4912426;29;19918;-79
2022/06/10 16:56:49;;;;;;;9.20;2.47;;;;;;;18.54;79.47;102117.06;4913094;29;20040;-79
2022/06/10 16:59:18;;;;;;;10.85;2.85;;;;;;;18.54;79.47;102122.38;4896861;29;20044;-79
2022/06/10 17:01:44;;;;;;;7.03;2.15;;;;;;;18.54;79.54;102119.72;4904727;29;20117;-80
2022/06/10 17:04:15;;;;;;;4.72;2.20;;;;;;;18.53;79.53;102115.31;4914501;29;20123;-79
2022/06/10 17:06:41;;;;;;;7.32;2.45;;;;;;;18.54;79.62;102114.41;4912213;29;20089;-79
2022/06/10 17:09:06;;;;;;;6.90;2.58;;;;;;;18.53;79.79;102115.31;4918715;29;20260;-79
2022/06/10 17:11:38;;;;;;;7.03;2.30;;;;;;;18.53;79.71;102112.69;4899729;29;20052;-80
2022/06/10 17:14:05;;;;;;;4.15;2.25;;;;;;;18.55;79.67;102107.28;4914119;29;20072;-79
2022/06/10 17:16:36;;;;;;;3.30;1.92;;;;;;;18.57;79.90;102108.94;4911148;29;20208;-80
2022/06/10 17:19:04;;;;;;;7.38;2.40;;;;;;;18.58;79.88;102105.34;4908412;29;20221;-80
2022/06/10 17:21:33;;;;;;;3.05;1.83;;;;;;;18.61;79.94;102114.94;4909137;29;20219;-80
2022/06/10 17:23:58;;;;;;;4.88;2.17;;;;;;;18.62;79.95;102113.97;4917377;29;20060;-80
2022/06/10 17:26:29;;;;;;;6.80;2.17;;;;;;;18.65;79.84;102115.63;4907695;29;20051;-80
2022/06/10 17:28:59;;;;;;;5.13;2.45;;;;;;;18.65;79.58;102115.63;4910760;29;20040;-80
2022/06/10 17:31:29;;;;;;;7.50;2.20;;;;;;;18.65;79.39;102105.00;4912126;29;20563;-79
2022/06/10 17:33:55;;;;;;;4.85;2.47;;;;;;;18.65;79.32;102110.31;4903502;29;20028;-80
2022/06/10 17:36:27;;;;;;;5.05;2.05;;;;;;;18.65;79.24;102107.66;4913263;29;20063;-79
2022/06/10 17:38:55;;;;;;;3.83;2.00;;;;;;;18.65;79.30;102105.00;4913484;29;20036;-80
2022/06/10 17:41:33;;;;;;;8.30;2.38;;;;;;;18.66;78.93;102106.72;4890005;29;20055;-79
2022/06/10 17:44:13;;;;;;;8.10;2.15;;;;;;;18.66;78.98;102109.38;4913374;29;20041;-80
2022/06/10 17:46:51;;;;;;;6.13;1.90;;;;;;;18.66;78.97;102115.53;4909161;29;20032;-80
2022/06/10 17:49:35;;;;;;;3.30;1.85;;;;;;;18.66;78.95;102112.88;4913363;29;20054;-79
2022/06/10 17:52:12;;;;;;;5.47;2.40;;;;;;;18.67;78.92;102121.72;4905923;29;20197;-79
2022/06/10 17:54:39;;;;;;;3.53;1.52;;;;;;;18.64;78.25;102119.22;4915195;29;20213;-79
2022/06/10 17:57:20;;;;;;;5.68;1.80;;;;;;;18.60;77.53;102129.97;4907085;29;20052;-79
2022/06/10 17:59:46;;;;;;;6.30;1.55;;;;;;;18.60;77.63;102123.81;4916103;29;20378;-79
2022/06/10 18:02:32;;;;;;;3.10;1.60;;;;;;;18.60;78.42;102119.38;4896888;29;20163;-80
2022/06/10 18:04:58;;;;;;;3.67;1.40;;;;;;;18.59;78.14;102122.09;4918499;29;20313;-80
2022/06/10 18:07:24;;;;;;;2.40;1.65;;;;;;;18.58;78.10;102126.56;4913469;29;20449;-80
2022/06/10 18:09:50;;;;;;;3.10;1.42;;;;;;;18.56;78.02;102125.78;4913683;29;20050;-79
2022/06/10 18:12:25;;;;;;;2.35;1.23;;;;;;;18.57;78.23;102132.81;4898194;29;20030;-79
2022/06/10 18:14:53;;;;;;;2.53;1.08;;;;;;;18.58;77.78;102137.16;4912626;29;20079;-80
2022/06/10 18:17:20;;;;;;;;;;;;;;;18.59;77.81;102133.59;4900728;29;20047;-79
2022/06/10 18:19:45;;;;;;;2.45;1.10;;;;;;;18.60;77.58;102135.28;4898806;29;20226;-79
2022/06/10 18:22:15;;;;;;;2.03;1.05;;;;;;;18.60;77.33;102127.31;4900678;29;20044;-80
2022/06/10 18:24:41;;;;;;;1.70;0.82;;;;;;;18.60;77.80;102123.81;4902339;29;20160;-79
2022/06/10 18:27:18;;;;;;;1.40;0.98;;;;;;;18.60;77.40;102129.13;4909862;29;20410;-79
2022/06/10 18:29:51;;;;;;;1.92;1.05;;;;;;;18.58;77.59;102118.59;4900362;29;20349;-79
2022/06/10 18:32:33;;;;;;;1.17;0.73;;;;;;;18.57;77.50;102124.84;4899047;29;20032;-80
2022/06/10 18:35:10;;;;;;;2.40;1.00;;;;;;;18.58;77.52;102120.41;4915638;29;20070;-80
2022/06/10 18:37:37;;;;;;;4.95;0.75;;;;;;;18.58;78.04;102117.75;4914010;29;20072;-79
2022/06/10 18:40:24;;;;;;;4.90;1.58;;;;;;;18.56;77.88;102123.13;4927629;29;20088;-80
2022/06/10 18:42:59;;;;;;;1.30;0.70;;;;;;;18.57;78.21;102118.69;4905882;29;20084;-80
2022/06/10 18:45:27;;;;;;;2.50;0.93;;;;;;;18.57;78.04;102119.56;4916392;29;20070;-80
2022/06/10 18:47:53;;;;;;;1.40;0.93;;;;;;;18.58;78.30;102120.41;4905175;29;20040;-80
2022/06/10 18:50:29;;;;;;;3.47;1.15;;;;;;;18.58;78.33;102120.41;4925948;29;20765;-80
2022/06/10 18:53:01;;;;;;;1.67;1.00;;;;;;;18.59;78.32;102119.44;4910377;29;20374;-80
2022/06/10 18:55:29;;;;;;;2.00;1.15;;;;;;;18.59;78.45;102116.78;4901726;29;20052;-79
2022/06/10 18:57:55;;;;;;;2.97;1.10;;;;;;;18.60;78.66;102114.06;4904087;29;20055;-80
2022/06/10 19:00:22;;;;;;;2.47;1.00;;;;;;;18.60;78.71;102113.22;4917041;29;20310;-80